sensor_id;sensor_type;location;lat;lon;timestamp;P1;durP1;ratioP1;P2;durP2;ratioP2
52354;SDS011;38286;51.156;17.038;2024-03-02T00:00:21;162.88;;;68.90;;
52354;SDS011;38286;51.156;17.038;2024-03-02T00:03:08;154.50;;;66.35;;
52354;SDS011;38286;51.156;17.038;2024-03-02T00:05:50;165.40;;;70.00;;
52354;SDS011;38286;51.156;17.038;2024-03-02T00:08:22;167.73;;;73.97;;
52354;SDS011;38286;51.156;17.038;2024-03-02T00:10:51;170.73;;;72.45;;
52354;SDS011;38286;51.156;17.038;2024-03-02T00:13:26;176.07;;;77.50;;
52354;SDS011;38286;51.156;17.038;2024-03-02T00:15:57;180.23;;;77.55;;
52354;SDS011;38286;51.156;17.038;2024-03-02T00:18:30;165.93;;;71.32;;
52354;SDS011;38286;51.156;17.038;2024-03-02T00:21:06;165.75;;;71.80;;
52354;SDS011;38286;51.156;17.038;2024-03-02T00:23:35;173.40;;;72.30;;
52354;SDS011;38286;51.156;17.038;2024-03-02T00:26:08;169.23;;;73.10;;
52354;SDS011;38286;51.156;17.038;2024-03-02T00:31:12;173.65;;;68.10;;
52354;SDS011;38286;51.156;17.038;2024-03-02T00:33:40;179.07;;;77.53;;
52354;SDS011;38286;51.156;17.038;2024-03-02T00:36:08;173.05;;;75.72;;
52354;SDS011;38286;51.156;17.038;2024-03-02T00:38:47;179.98;;;74.35;;
52354;SDS011;38286;51.156;17.038;2024-03-02T00:41:36;181.15;;;72.35;;
52354;SDS011;38286;51.156;17.038;2024-03-02T00:44:12;174.90;;;71.85;;
52354;SDS011;38286;51.156;17.038;2024-03-02T00:46:42;174.82;;;73.00;;
52354;SDS011;38286;51.156;17.038;2024-03-02T00:49:13;173.48;;;69.53;;
52354;SDS011;38286;51.156;17.038;2024-03-02T00:52:00;178.80;;;71.38;;
52354;SDS011;38286;51.156;17.038;2024-03-02T00:54:34;175.35;;;69.30;;
52354;SDS011;38286;51.156;17.038;2024-03-02T00:57:03;168.30;;;70.60;;
52354;SDS011;38286;51.156;17.038;2024-03-02T00:59:52;181.63;;;68.93;;
52354;SDS011;38286;51.156;17.038;2024-03-02T01:02:20;184.63;;;73.38;;
52354;SDS011;38286;51.156;17.038;2024-03-02T01:04:51;186.65;;;76.40;;
52354;SDS011;38286;51.156;17.038;2024-03-02T01:07:19;176.45;;;71.35;;
52354;SDS011;38286;51.156;17.038;2024-03-02T01:10:04;183.93;;;71.85;;
52354;SDS011;38286;51.156;17.038;2024-03-02T01:12:35;183.15;;;70.18;;
52354;SDS011;38286;51.156;17.038;2024-03-02T01:15:09;185.27;;;73.38;;
52354;SDS011;38286;51.156;17.038;2024-03-02T01:17:41;191.82;;;78.25;;
52354;SDS011;38286;51.156;17.038;2024-03-02T01:20:13;179.48;;;71.65;;
52354;SDS011;38286;51.156;17.038;2024-03-02T01:22:42;183.23;;;68.85;;
52354;SDS011;38286;51.156;17.038;2024-03-02T01:25:19;178.05;;;70.68;;
52354;SDS011;38286;51.156;17.038;2024-03-02T01:27:53;192.65;;;74.30;;
52354;SDS011;38286;51.156;17.038;2024-03-02T01:30:19;194.63;;;79.25;;
52354;SDS011;38286;51.156;17.038;2024-03-02T01:32:49;196.63;;;78.90;;
52354;SDS011;38286;51.156;17.038;2024-03-02T01:35:16;200.95;;;80.50;;
52354;SDS011;38286;51.156;17.038;2024-03-02T01:37:47;189.38;;;77.78;;
52354;SDS011;38286;51.156;17.038;2024-03-02T01:40:18;196.07;;;79.18;;
52354;SDS011;38286;51.156;17.038;2024-03-02T01:42:53;196.77;;;77.60;;
52354;SDS011;38286;51.156;17.038;2024-03-02T01:45:25;203.07;;;80.60;;
52354;SDS011;38286;51.156;17.038;2024-03-02T01:48:01;196.63;;;79.50;;
52354;SDS011;38286;51.156;17.038;2024-03-02T01:50:27;188.05;;;76.90;;
52354;SDS011;38286;51.156;17.038;2024-03-02T01:53:00;178.98;;;73.95;;
52354;SDS011;38286;51.156;17.038;2024-03-02T01:55:28;188.80;;;75.80;;
52354;SDS011;38286;51.156;17.038;2024-03-02T01:58:00;191.38;;;76.28;;
52354;SDS011;38286;51.156;17.038;2024-03-02T02:00:31;188.23;;;75.43;;
52354;SDS011;38286;51.156;17.038;2024-03-02T02:03:10;183.45;;;76.82;;
52354;SDS011;38286;51.156;17.038;2024-03-02T02:05:38;178.60;;;72.93;;
52354;SDS011;38286;51.156;17.038;2024-03-02T02:08:05;190.98;;;74.15;;
52354;SDS011;38286;51.156;17.038;2024-03-02T02:10:32;195.48;;;74.30;;
52354;SDS011;38286;51.156;17.038;2024-03-02T02:13:05;172.27;;;67.43;;
52354;SDS011;38286;51.156;17.038;2024-03-02T02:15:33;191.52;;;76.78;;
52354;SDS011;38286;51.156;17.038;2024-03-02T02:18:02;192.80;;;75.53;;
52354;SDS011;38286;51.156;17.038;2024-03-02T02:20:30;186.43;;;74.30;;
52354;SDS011;38286;51.156;17.038;2024-03-02T02:23:05;189.55;;;74.05;;
52354;SDS011;38286;51.156;17.038;2024-03-02T02:25:35;188.82;;;72.18;;
52354;SDS011;38286;51.156;17.038;2024-03-02T02:28:06;180.57;;;74.63;;
52354;SDS011;38286;51.156;17.038;2024-03-02T02:30:35;187.88;;;74.95;;
52354;SDS011;38286;51.156;17.038;2024-03-02T02:33:11;189.23;;;75.70;;
52354;SDS011;38286;51.156;17.038;2024-03-02T02:35:44;178.82;;;72.43;;
52354;SDS011;38286;51.156;17.038;2024-03-02T02:38:43;180.57;;;71.40;;
52354;SDS011;38286;51.156;17.038;2024-03-02T02:41:13;165.00;;;69.40;;
52354;SDS011;38286;51.156;17.038;2024-03-02T02:43:40;174.02;;;70.72;;
52354;SDS011;38286;51.156;17.038;2024-03-02T02:46:06;173.43;;;69.10;;
52354;SDS011;38286;51.156;17.038;2024-03-02T02:48:39;173.95;;;70.13;;
52354;SDS011;38286;51.156;17.038;2024-03-02T02:51:08;166.65;;;67.03;;
52354;SDS011;38286;51.156;17.038;2024-03-02T02:53:35;186.40;;;71.68;;
52354;SDS011;38286;51.156;17.038;2024-03-02T02:56:06;169.05;;;68.85;;
52354;SDS011;38286;51.156;17.038;2024-03-02T02:58:34;179.77;;;69.20;;
52354;SDS011;38286;51.156;17.038;2024-03-02T03:01:07;186.82;;;70.00;;
52354;SDS011;38286;51.156;17.038;2024-03-02T03:03:38;175.13;;;70.55;;
52354;SDS011;38286;51.156;17.038;2024-03-02T03:06:08;184.40;;;72.13;;
52354;SDS011;38286;51.156;17.038;2024-03-02T03:08:38;179.93;;;72.55;;
52354;SDS011;38286;51.156;17.038;2024-03-02T03:11:05;184.32;;;74.35;;
52354;SDS011;38286;51.156;17.038;2024-03-02T03:13:33;207.27;;;79.90;;
52354;SDS011;38286;51.156;17.038;2024-03-02T03:15:59;220.15;;;81.47;;
52354;SDS011;38286;51.156;17.038;2024-03-02T03:18:31;210.68;;;81.28;;
52354;SDS011;38286;51.156;17.038;2024-03-02T03:20:59;214.90;;;83.88;;
52354;SDS011;38286;51.156;17.038;2024-03-02T03:23:28;212.38;;;82.88;;
52354;SDS011;38286;51.156;17.038;2024-03-02T03:25:56;219.32;;;84.68;;
52354;SDS011;38286;51.156;17.038;2024-03-02T03:28:23;224.48;;;83.10;;
52354;SDS011;38286;51.156;17.038;2024-03-02T03:30:51;201.38;;;79.72;;
52354;SDS011;38286;51.156;17.038;2024-03-02T03:33:19;211.88;;;82.82;;
52354;SDS011;38286;51.156;17.038;2024-03-02T03:35:45;198.77;;;80.32;;
52354;SDS011;38286;51.156;17.038;2024-03-02T03:38:14;208.82;;;79.93;;
52354;SDS011;38286;51.156;17.038;2024-03-02T03:40:42;180.45;;;74.60;;
52354;SDS011;38286;51.156;17.038;2024-03-02T03:43:19;185.18;;;72.63;;
52354;SDS011;38286;51.156;17.038;2024-03-02T03:45:48;184.75;;;71.22;;
52354;SDS011;38286;51.156;17.038;2024-03-02T03:48:31;190.63;;;71.20;;
52354;SDS011;38286;51.156;17.038;2024-03-02T03:51:08;176.57;;;69.97;;
52354;SDS011;38286;51.156;17.038;2024-03-02T03:53:49;167.13;;;65.95;;
52354;SDS011;38286;51.156;17.038;2024-03-02T03:56:16;169.50;;;65.88;;
52354;SDS011;38286;51.156;17.038;2024-03-02T03:58:55;160.73;;;66.30;;
52354;SDS011;38286;51.156;17.038;2024-03-02T04:01:25;162.38;;;67.28;;
52354;SDS011;38286;51.156;17.038;2024-03-02T04:03:53;155.80;;;65.10;;
52354;SDS011;38286;51.156;17.038;2024-03-02T04:06:20;156.10;;;63.40;;
52354;SDS011;38286;51.156;17.038;2024-03-02T04:08:50;146.10;;;62.92;;
52354;SDS011;38286;51.156;17.038;2024-03-02T04:11:17;156.07;;;65.97;;
52354;SDS011;38286;51.156;17.038;2024-03-02T04:13:49;155.05;;;63.15;;
52354;SDS011;38286;51.156;17.038;2024-03-02T04:16:16;150.65;;;64.32;;
52354;SDS011;38286;51.156;17.038;2024-03-02T04:18:51;153.52;;;63.13;;
52354;SDS011;38286;51.156;17.038;2024-03-02T04:21:25;161.70;;;65.40;;
52354;SDS011;38286;51.156;17.038;2024-03-02T04:23:52;159.15;;;64.57;;
52354;SDS011;38286;51.156;17.038;2024-03-02T04:28:56;151.07;;;57.83;;
52354;SDS011;38286;51.156;17.038;2024-03-02T04:31:23;141.50;;;58.30;;
52354;SDS011;38286;51.156;17.038;2024-03-02T04:34:02;146.73;;;60.78;;
52354;SDS011;38286;51.156;17.038;2024-03-02T04:36:29;134.68;;;56.83;;
52354;SDS011;38286;51.156;17.038;2024-03-02T04:38:56;133.68;;;55.10;;
52354;SDS011;38286;51.156;17.038;2024-03-02T04:41:27;139.75;;;57.67;;
52354;SDS011;38286;51.156;17.038;2024-03-02T04:43:54;136.00;;;55.42;;
52354;SDS011;38286;51.156;17.038;2024-03-02T04:46:20;141.00;;;57.55;;
52354;SDS011;38286;51.156;17.038;2024-03-02T04:48:47;138.77;;;60.22;;
52354;SDS011;38286;51.156;17.038;2024-03-02T04:51:16;152.98;;;60.35;;
52354;SDS011;38286;51.156;17.038;2024-03-02T04:53:43;138.93;;;59.58;;
52354;SDS011;38286;51.156;17.038;2024-03-02T04:56:10;150.30;;;58.67;;
52354;SDS011;38286;51.156;17.038;2024-03-02T04:59:07;142.65;;;58.00;;
52354;SDS011;38286;51.156;17.038;2024-03-02T05:01:34;141.68;;;57.67;;
52354;SDS011;38286;51.156;17.038;2024-03-02T05:04:03;151.13;;;62.05;;
52354;SDS011;38286;51.156;17.038;2024-03-02T05:06:38;146.18;;;60.40;;
52354;SDS011;38286;51.156;17.038;2024-03-02T05:09:06;150.80;;;59.53;;
52354;SDS011;38286;51.156;17.038;2024-03-02T05:11:37;153.50;;;58.65;;
52354;SDS011;38286;51.156;17.038;2024-03-02T05:14:07;137.98;;;58.97;;
52354;SDS011;38286;51.156;17.038;2024-03-02T05:16:35;136.75;;;56.55;;
52354;SDS011;38286;51.156;17.038;2024-03-02T05:19:07;158.20;;;59.78;;
52354;SDS011;38286;51.156;17.038;2024-03-02T05:21:34;159.05;;;62.38;;
52354;SDS011;38286;51.156;17.038;2024-03-02T05:24:00;151.48;;;59.83;;
52354;SDS011;38286;51.156;17.038;2024-03-02T05:26:31;157.05;;;61.42;;
52354;SDS011;38286;51.156;17.038;2024-03-02T05:29:08;153.15;;;59.63;;
52354;SDS011;38286;51.156;17.038;2024-03-02T05:31:39;159.55;;;61.67;;
52354;SDS011;38286;51.156;17.038;2024-03-02T05:34:06;161.98;;;61.20;;
52354;SDS011;38286;51.156;17.038;2024-03-02T05:36:38;161.23;;;62.30;;
52354;SDS011;38286;51.156;17.038;2024-03-02T05:39:07;166.85;;;62.60;;
52354;SDS011;38286;51.156;17.038;2024-03-02T05:41:38;163.02;;;60.45;;
52354;SDS011;38286;51.156;17.038;2024-03-02T05:44:04;157.60;;;58.40;;
52354;SDS011;38286;51.156;17.038;2024-03-02T05:46:33;152.43;;;58.58;;
52354;SDS011;38286;51.156;17.038;2024-03-02T05:49:02;156.25;;;61.25;;
52354;SDS011;38286;51.156;17.038;2024-03-02T05:51:30;153.02;;;58.38;;
52354;SDS011;38286;51.156;17.038;2024-03-02T05:53:57;148.40;;;58.85;;
52354;SDS011;38286;51.156;17.038;2024-03-02T05:56:23;156.35;;;60.33;;
52354;SDS011;38286;51.156;17.038;2024-03-02T05:58:49;144.38;;;57.38;;
52354;SDS011;38286;51.156;17.038;2024-03-02T06:01:40;149.85;;;56.42;;
52354;SDS011;38286;51.156;17.038;2024-03-02T06:04:08;133.50;;;54.05;;
52354;SDS011;38286;51.156;17.038;2024-03-02T06:06:41;143.80;;;56.08;;
52354;SDS011;38286;51.156;17.038;2024-03-02T06:09:09;140.73;;;55.97;;
52354;SDS011;38286;51.156;17.038;2024-03-02T06:11:38;127.10;;;54.63;;
52354;SDS011;38286;51.156;17.038;2024-03-02T06:14:06;128.00;;;55.35;;
52354;SDS011;38286;51.156;17.038;2024-03-02T06:16:32;133.95;;;57.78;;
52354;SDS011;38286;51.156;17.038;2024-03-02T06:19:06;123.38;;;53.38;;
52354;SDS011;38286;51.156;17.038;2024-03-02T06:22:18;140.00;;;57.63;;
52354;SDS011;38286;51.156;17.038;2024-03-02T06:25:44;131.63;;;53.17;;
52354;SDS011;38286;51.156;17.038;2024-03-02T06:28:54;137.50;;;55.35;;
52354;SDS011;38286;51.156;17.038;2024-03-02T06:31:32;135.57;;;57.55;;
52354;SDS011;38286;51.156;17.038;2024-03-02T06:34:05;134.48;;;59.45;;
52354;SDS011;38286;51.156;17.038;2024-03-02T06:36:38;149.20;;;61.70;;
52354;SDS011;38286;51.156;17.038;2024-03-02T06:39:27;141.35;;;59.92;;
52354;SDS011;38286;51.156;17.038;2024-03-02T06:42:13;141.75;;;59.83;;
52354;SDS011;38286;51.156;17.038;2024-03-02T06:44:50;133.98;;;61.40;;
52354;SDS011;38286;51.156;17.038;2024-03-02T06:47:29;138.13;;;59.47;;
52354;SDS011;38286;51.156;17.038;2024-03-02T06:50:12;152.30;;;63.13;;
52354;SDS011;38286;51.156;17.038;2024-03-02T06:52:45;140.00;;;58.65;;
52354;SDS011;38286;51.156;17.038;2024-03-02T06:55:37;138.95;;;59.63;;
52354;SDS011;38286;51.156;17.038;2024-03-02T06:58:05;129.02;;;58.72;;
52354;SDS011;38286;51.156;17.038;2024-03-02T07:00:33;134.60;;;56.92;;
52354;SDS011;38286;51.156;17.038;2024-03-02T07:03:26;132.80;;;59.25;;
52354;SDS011;38286;51.156;17.038;2024-03-02T07:05:56;134.23;;;56.20;;
52354;SDS011;38286;51.156;17.038;2024-03-02T07:08:29;122.47;;;54.92;;
52354;SDS011;38286;51.156;17.038;2024-03-02T07:11:00;122.88;;;58.22;;
52354;SDS011;38286;51.156;17.038;2024-03-02T07:14:02;122.70;;;53.78;;
52354;SDS011;38286;51.156;17.038;2024-03-02T07:16:30;117.07;;;54.08;;
52354;SDS011;38286;51.156;17.038;2024-03-02T07:19:02;110.75;;;52.45;;
52354;SDS011;38286;51.156;17.038;2024-03-02T07:21:46;111.05;;;52.67;;
52354;SDS011;38286;51.156;17.038;2024-03-02T07:24:13;112.25;;;51.25;;
52354;SDS011;38286;51.156;17.038;2024-03-02T07:26:42;108.60;;;50.85;;
52354;SDS011;38286;51.156;17.038;2024-03-02T07:29:19;101.40;;;47.47;;
52354;SDS011;38286;51.156;17.038;2024-03-02T07:33:07;87.72;;;44.67;;
52354;SDS011;38286;51.156;17.038;2024-03-02T07:36:26;79.68;;;43.20;;
52354;SDS011;38286;51.156;17.038;2024-03-02T07:38:58;80.15;;;43.45;;
52354;SDS011;38286;51.156;17.038;2024-03-02T07:41:49;79.50;;;43.72;;
52354;SDS011;38286;51.156;17.038;2024-03-02T07:44:19;79.72;;;43.90;;
52354;SDS011;38286;51.156;17.038;2024-03-02T07:46:50;77.13;;;41.88;;
52354;SDS011;38286;51.156;17.038;2024-03-02T07:49:19;71.50;;;40.25;;
52354;SDS011;38286;51.156;17.038;2024-03-02T07:51:45;68.68;;;40.83;;
52354;SDS011;38286;51.156;17.038;2024-03-02T07:54:13;70.53;;;40.38;;
52354;SDS011;38286;51.156;17.038;2024-03-02T07:56:45;64.80;;;38.60;;
52354;SDS011;38286;51.156;17.038;2024-03-02T07:59:12;63.88;;;39.20;;
52354;SDS011;38286;51.156;17.038;2024-03-02T08:01:42;68.15;;;38.40;;
52354;SDS011;38286;51.156;17.038;2024-03-02T08:04:10;64.05;;;36.88;;
52354;SDS011;38286;51.156;17.038;2024-03-02T08:06:36;65.80;;;38.45;;
52354;SDS011;38286;51.156;17.038;2024-03-02T08:09:04;74.57;;;40.85;;
52354;SDS011;38286;51.156;17.038;2024-03-02T08:11:35;66.97;;;38.70;;
52354;SDS011;38286;51.156;17.038;2024-03-02T08:14:03;65.88;;;39.67;;
52354;SDS011;38286;51.156;17.038;2024-03-02T08:16:29;69.75;;;39.33;;
52354;SDS011;38286;51.156;17.038;2024-03-02T08:19:10;66.05;;;38.60;;
52354;SDS011;38286;51.156;17.038;2024-03-02T08:21:48;62.47;;;38.05;;
52354;SDS011;38286;51.156;17.038;2024-03-02T08:24:17;70.57;;;40.95;;
52354;SDS011;38286;51.156;17.038;2024-03-02T08:26:43;68.32;;;39.92;;
52354;SDS011;38286;51.156;17.038;2024-03-02T08:29:09;75.68;;;42.22;;
52354;SDS011;38286;51.156;17.038;2024-03-02T08:31:41;77.43;;;42.78;;
52354;SDS011;38286;51.156;17.038;2024-03-02T08:34:07;73.82;;;42.38;;
52354;SDS011;38286;51.156;17.038;2024-03-02T08:36:34;74.95;;;41.75;;
52354;SDS011;38286;51.156;17.038;2024-03-02T08:39:02;78.13;;;44.00;;
52354;SDS011;38286;51.156;17.038;2024-03-02T08:41:42;75.68;;;43.67;;
52354;SDS011;38286;51.156;17.038;2024-03-02T08:44:10;76.60;;;46.45;;
52354;SDS011;38286;51.156;17.038;2024-03-02T08:46:36;78.13;;;46.15;;
52354;SDS011;38286;51.156;17.038;2024-03-02T08:49:03;79.60;;;47.25;;
52354;SDS011;38286;51.156;17.038;2024-03-02T08:51:28;78.63;;;46.08;;
52354;SDS011;38286;51.156;17.038;2024-03-02T08:53:54;81.57;;;46.25;;
52354;SDS011;38286;51.156;17.038;2024-03-02T08:56:20;79.90;;;45.67;;
52354;SDS011;38286;51.156;17.038;2024-03-02T08:58:48;80.15;;;44.35;;
52354;SDS011;38286;51.156;17.038;2024-03-02T09:01:14;76.78;;;43.75;;
52354;SDS011;38286;51.156;17.038;2024-03-02T09:03:42;72.13;;;43.63;;
52354;SDS011;38286;51.156;17.038;2024-03-02T09:06:10;76.72;;;42.15;;
52354;SDS011;38286;51.156;17.038;2024-03-02T09:08:37;70.70;;;42.17;;
52354;SDS011;38286;51.156;17.038;2024-03-02T09:11:04;75.50;;;43.97;;
52354;SDS011;38286;51.156;17.038;2024-03-02T09:13:33;70.20;;;42.45;;
52354;SDS011;38286;51.156;17.038;2024-03-02T09:16:00;72.57;;;42.25;;
52354;SDS011;38286;51.156;17.038;2024-03-02T09:18:28;70.97;;;41.75;;
52354;SDS011;38286;51.156;17.038;2024-03-02T09:20:55;70.68;;;40.97;;
52354;SDS011;38286;51.156;17.038;2024-03-02T09:23:21;72.05;;;40.58;;
52354;SDS011;38286;51.156;17.038;2024-03-02T09:25:47;64.05;;;38.00;;
52354;SDS011;38286;51.156;17.038;2024-03-02T09:28:17;61.65;;;38.25;;
52354;SDS011;38286;51.156;17.038;2024-03-02T09:30:43;62.00;;;38.22;;
52354;SDS011;38286;51.156;17.038;2024-03-02T09:33:10;60.13;;;35.80;;
52354;SDS011;38286;51.156;17.038;2024-03-02T09:35:36;51.47;;;32.72;;
52354;SDS011;38286;51.156;17.038;2024-03-02T09:38:03;50.55;;;32.28;;
52354;SDS011;38286;51.156;17.038;2024-03-02T09:40:29;50.42;;;31.25;;
52354;SDS011;38286;51.156;17.038;2024-03-02T09:42:55;53.40;;;31.05;;
52354;SDS011;38286;51.156;17.038;2024-03-02T09:45:23;50.30;;;31.35;;
52354;SDS011;38286;51.156;17.038;2024-03-02T09:47:51;46.63;;;29.65;;
52354;SDS011;38286;51.156;17.038;2024-03-02T09:50:16;49.55;;;30.55;;
52354;SDS011;38286;51.156;17.038;2024-03-02T09:52:43;53.70;;;30.27;;
52354;SDS011;38286;51.156;17.038;2024-03-02T09:55:09;52.75;;;30.45;;
52354;SDS011;38286;51.156;17.038;2024-03-02T09:57:38;48.00;;;30.30;;
52354;SDS011;38286;51.156;17.038;2024-03-02T10:00:08;46.85;;;28.95;;
52354;SDS011;38286;51.156;17.038;2024-03-02T10:02:35;50.22;;;28.60;;
52354;SDS011;38286;51.156;17.038;2024-03-02T10:05:01;44.78;;;28.02;;
52354;SDS011;38286;51.156;17.038;2024-03-02T10:07:29;42.00;;;26.58;;
52354;SDS011;38286;51.156;17.038;2024-03-02T10:09:55;44.05;;;27.95;;
52354;SDS011;38286;51.156;17.038;2024-03-02T10:12:20;41.90;;;27.35;;
52354;SDS011;38286;51.156;17.038;2024-03-02T10:14:47;47.08;;;28.50;;
52354;SDS011;38286;51.156;17.038;2024-03-02T10:17:17;46.92;;;28.95;;
52354;SDS011;38286;51.156;17.038;2024-03-02T10:19:42;52.17;;;31.95;;
52354;SDS011;38286;51.156;17.038;2024-03-02T10:22:09;59.03;;;35.95;;
52354;SDS011;38286;51.156;17.038;2024-03-02T10:24:36;65.30;;;38.10;;
52354;SDS011;38286;51.156;17.038;2024-03-02T10:27:14;66.90;;;37.47;;
52354;SDS011;38286;51.156;17.038;2024-03-02T10:29:45;74.05;;;38.83;;
52354;SDS011;38286;51.156;17.038;2024-03-02T10:32:13;63.17;;;38.13;;
52354;SDS011;38286;51.156;17.038;2024-03-02T10:34:42;67.93;;;38.35;;
52354;SDS011;38286;51.156;17.038;2024-03-02T10:37:11;64.80;;;38.78;;
52354;SDS011;38286;51.156;17.038;2024-03-02T10:39:37;64.05;;;36.30;;
52354;SDS011;38286;51.156;17.038;2024-03-02T10:42:06;62.55;;;38.67;;
52354;SDS011;38286;51.156;17.038;2024-03-02T10:44:32;64.85;;;36.75;;
52354;SDS011;38286;51.156;17.038;2024-03-02T10:47:00;59.58;;;36.15;;
52354;SDS011;38286;51.156;17.038;2024-03-02T10:49:28;54.88;;;33.25;;
52354;SDS011;38286;51.156;17.038;2024-03-02T10:52:00;55.05;;;33.30;;
52354;SDS011;38286;51.156;17.038;2024-03-02T10:54:27;46.45;;;28.55;;
52354;SDS011;38286;51.156;17.038;2024-03-02T10:56:55;42.90;;;27.05;;
52354;SDS011;38286;51.156;17.038;2024-03-02T11:01:56;44.58;;;26.63;;
52354;SDS011;38286;51.156;17.038;2024-03-02T11:04:29;45.50;;;28.33;;
52354;SDS011;38286;51.156;17.038;2024-03-02T11:07:00;41.97;;;27.25;;
52354;SDS011;38286;51.156;17.038;2024-03-02T11:09:29;42.08;;;25.13;;
52354;SDS011;38286;51.156;17.038;2024-03-02T11:12:06;44.47;;;27.55;;
52354;SDS011;38286;51.156;17.038;2024-03-02T11:14:42;43.97;;;27.37;;
52354;SDS011;38286;51.156;17.038;2024-03-02T11:17:10;45.90;;;27.13;;
52354;SDS011;38286;51.156;17.038;2024-03-02T11:19:38;38.20;;;25.10;;
52354;SDS011;38286;51.156;17.038;2024-03-02T11:22:06;49.53;;;28.63;;
52354;SDS011;38286;51.156;17.038;2024-03-02T11:24:32;40.90;;;23.67;;
52354;SDS011;38286;51.156;17.038;2024-03-02T11:26:59;35.67;;;22.65;;
52354;SDS011;38286;51.156;17.038;2024-03-02T11:32:21;34.97;;;23.08;;
52354;SDS011;38286;51.156;17.038;2024-03-02T11:34:49;36.53;;;23.65;;
52354;SDS011;38286;51.156;17.038;2024-03-02T11:37:16;34.28;;;22.73;;
52354;SDS011;38286;51.156;17.038;2024-03-02T11:39:44;36.80;;;22.88;;
52354;SDS011;38286;51.156;17.038;2024-03-02T11:42:11;39.10;;;22.95;;
52354;SDS011;38286;51.156;17.038;2024-03-02T11:44:39;33.13;;;22.63;;
52354;SDS011;38286;51.156;17.038;2024-03-02T11:47:08;36.45;;;22.27;;
52354;SDS011;38286;51.156;17.038;2024-03-02T11:49:38;36.10;;;23.50;;
52354;SDS011;38286;51.156;17.038;2024-03-02T11:52:05;32.88;;;22.00;;
52354;SDS011;38286;51.156;17.038;2024-03-02T11:54:33;30.95;;;20.67;;
52354;SDS011;38286;51.156;17.038;2024-03-02T11:57:01;31.25;;;21.73;;
52354;SDS011;38286;51.156;17.038;2024-03-02T11:59:32;32.78;;;21.88;;
52354;SDS011;38286;51.156;17.038;2024-03-02T12:01:58;35.20;;;22.63;;
52354;SDS011;38286;51.156;17.038;2024-03-02T12:04:28;34.90;;;21.55;;
52354;SDS011;38286;51.156;17.038;2024-03-02T12:06:58;35.03;;;23.33;;
52354;SDS011;38286;51.156;17.038;2024-03-02T12:09:30;38.20;;;23.15;;
52354;SDS011;38286;51.156;17.038;2024-03-02T12:14:35;37.33;;;23.00;;
52354;SDS011;38286;51.156;17.038;2024-03-02T12:17:02;36.28;;;23.58;;
52354;SDS011;38286;51.156;17.038;2024-03-02T12:19:29;41.13;;;23.52;;
52354;SDS011;38286;51.156;17.038;2024-03-02T12:21:56;37.78;;;24.80;;
52354;SDS011;38286;51.156;17.038;2024-03-02T12:24:22;35.10;;;23.70;;
52354;SDS011;38286;51.156;17.038;2024-03-02T12:26:50;33.78;;;21.80;;
52354;SDS011;38286;51.156;17.038;2024-03-02T12:29:16;34.13;;;21.48;;
52354;SDS011;38286;51.156;17.038;2024-03-02T12:31:45;32.58;;;20.55;;
52354;SDS011;38286;51.156;17.038;2024-03-02T12:34:16;32.33;;;19.92;;
52354;SDS011;38286;51.156;17.038;2024-03-02T12:36:42;34.00;;;20.50;;
52354;SDS011;38286;51.156;17.038;2024-03-02T12:39:09;32.10;;;19.88;;
52354;SDS011;38286;51.156;17.038;2024-03-02T12:41:38;32.17;;;20.30;;
52354;SDS011;38286;51.156;17.038;2024-03-02T12:44:05;33.42;;;20.02;;
52354;SDS011;38286;51.156;17.038;2024-03-02T12:46:31;32.17;;;20.65;;
52354;SDS011;38286;51.156;17.038;2024-03-02T12:48:58;31.63;;;20.35;;
52354;SDS011;38286;51.156;17.038;2024-03-02T12:51:44;27.75;;;18.08;;
52354;SDS011;38286;51.156;17.038;2024-03-02T12:54:12;28.15;;;18.65;;
52354;SDS011;38286;51.156;17.038;2024-03-02T12:56:38;28.50;;;17.90;;
52354;SDS011;38286;51.156;17.038;2024-03-02T12:59:07;30.63;;;17.08;;
52354;SDS011;38286;51.156;17.038;2024-03-02T13:01:36;32.28;;;18.90;;
52354;SDS011;38286;51.156;17.038;2024-03-02T13:04:02;31.05;;;19.05;;
52354;SDS011;38286;51.156;17.038;2024-03-02T13:06:29;28.33;;;18.55;;
52354;SDS011;38286;51.156;17.038;2024-03-02T13:08:59;26.77;;;17.70;;
52354;SDS011;38286;51.156;17.038;2024-03-02T13:11:25;29.90;;;17.85;;
52354;SDS011;38286;51.156;17.038;2024-03-02T13:13:53;28.70;;;17.83;;
52354;SDS011;38286;51.156;17.038;2024-03-02T13:16:20;27.58;;;17.83;;
52354;SDS011;38286;51.156;17.038;2024-03-02T13:18:46;24.45;;;16.00;;
52354;SDS011;38286;51.156;17.038;2024-03-02T13:21:13;23.85;;;15.63;;
52354;SDS011;38286;51.156;17.038;2024-03-02T13:23:41;27.90;;;15.77;;
52354;SDS011;38286;51.156;17.038;2024-03-02T13:26:08;30.05;;;16.52;;
52354;SDS011;38286;51.156;17.038;2024-03-02T13:28:35;23.73;;;16.00;;
52354;SDS011;38286;51.156;17.038;2024-03-02T13:31:02;26.75;;;16.42;;
52354;SDS011;38286;51.156;17.038;2024-03-02T13:33:31;26.98;;;17.02;;
52354;SDS011;38286;51.156;17.038;2024-03-02T13:35:58;28.60;;;15.95;;
52354;SDS011;38286;51.156;17.038;2024-03-02T13:38:24;27.05;;;16.10;;
52354;SDS011;38286;51.156;17.038;2024-03-02T13:40:50;26.95;;;15.88;;
52354;SDS011;38286;51.156;17.038;2024-03-02T13:43:21;27.67;;;16.27;;
52354;SDS011;38286;51.156;17.038;2024-03-02T13:45:49;25.75;;;17.17;;
52354;SDS011;38286;51.156;17.038;2024-03-02T13:48:15;27.42;;;16.70;;
52354;SDS011;38286;51.156;17.038;2024-03-02T13:50:45;27.27;;;17.48;;
52354;SDS011;38286;51.156;17.038;2024-03-02T13:53:11;29.60;;;18.00;;
52354;SDS011;38286;51.156;17.038;2024-03-02T13:55:37;32.65;;;17.52;;
52354;SDS011;38286;51.156;17.038;2024-03-02T13:58:03;29.05;;;17.38;;
52354;SDS011;38286;51.156;17.038;2024-03-02T14:00:29;29.35;;;18.13;;
52354;SDS011;38286;51.156;17.038;2024-03-02T14:02:57;32.97;;;18.83;;
52354;SDS011;38286;51.156;17.038;2024-03-02T14:05:25;32.28;;;18.55;;
52354;SDS011;38286;51.156;17.038;2024-03-02T14:07:52;28.75;;;19.05;;
52354;SDS011;38286;51.156;17.038;2024-03-02T14:10:19;26.60;;;17.60;;
52354;SDS011;38286;51.156;17.038;2024-03-02T14:12:47;27.05;;;17.63;;
52354;SDS011;38286;51.156;17.038;2024-03-02T14:15:13;31.33;;;19.13;;
52354;SDS011;38286;51.156;17.038;2024-03-02T14:17:39;27.70;;;18.95;;
52354;SDS011;38286;51.156;17.038;2024-03-02T14:20:07;30.45;;;18.63;;
52354;SDS011;38286;51.156;17.038;2024-03-02T14:22:37;28.08;;;18.65;;
52354;SDS011;38286;51.156;17.038;2024-03-02T14:25:06;30.77;;;18.80;;
52354;SDS011;38286;51.156;17.038;2024-03-02T14:27:33;29.23;;;18.13;;
52354;SDS011;38286;51.156;17.038;2024-03-02T14:30:00;27.15;;;17.88;;
52354;SDS011;38286;51.156;17.038;2024-03-02T14:32:26;30.13;;;19.05;;
52354;SDS011;38286;51.156;17.038;2024-03-02T14:34:54;33.45;;;19.63;;
52354;SDS011;38286;51.156;17.038;2024-03-02T14:37:19;30.88;;;19.63;;